Time;durP1;ratioP1;P1;durP2;ratioP2;P2;SDS_P1;SDS_P2;PMS_P1;PMS_P2;Temp;Humidity;BMP_temperature;BMP_pressure;BME280_temperature;BME280_humidity;BME280_pressure;Samples;Min_cycle;Max_cycle;Signal;HPM_P1;HPM_P2
2022/06/10 00:01:11;;;;;;;35.10;8.57;;;;;;;13.27;100.00;102009.97;5035020;28;20025;-45
2022/06/10 00:03:36;;;;;;;24.10;8.48;;;;;;;13.28;100.00;102019.72;5033870;28;20266;-44
2022/06/10 00:06:05;;;;;;;33.92;7.80;;;;;;;13.30;100.00;102020.41;5032951;28;20055;-47
2022/06/10 00:08:34;;;;;;;28.55;8.18;;;;;;;13.23;100.00;102012.94;5025994;28;20116;-46
2022/06/10 00:11:00;;;;;;;30.83;8.55;;;;;;;13.28;100.00;102014.34;5001331;28;20029;-49
2022/06/10 00:13:29;;;;;;;44.30;9.15;;;;;;;13.21;100.00;102014.94;5033411;28;20025;-47
2022/06/10 00:15:55;;;;;;;32.33;8.55;;;;;;;13.24;100.00;102014.63;5030840;28;20032;-44
2022/06/10 00:18:22;;;;;;;30.08;8.75;;;;;;;13.22;100.00;102015.78;5033632;28;20032;-44
2022/06/10 00:20:48;;;;;;;28.23;8.48;;;;;;;13.20;100.00;102018.63;5031910;28;20013;-47
2022/06/10 00:23:13;;;;;;;34.38;8.70;;;;;;;13.16;100.00;102011.84;5034768;28;20244;-46
2022/06/10 00:25:39;;;;;;;33.60;8.18;;;;;;;13.15;100.00;102015.56;5033137;28;20029;-46
2022/06/10 00:28:06;;;;;;;26.83;8.70;;;;;;;13.17;100.00;102016.25;5027424;28;20029;-45
2022/06/10 00:30:31;;;;;;;30.10;9.18;;;;;;;13.19;100.00;102014.25;5032405;28;20059;-47
2022/06/10 00:32:58;;;;;;;43.05;8.45;;;;;;;13.21;100.00;102014.09;5031176;28;20368;-46
2022/06/10 00:35:23;;;;;;;29.95;8.35;;;;;;;13.23;100.00;102010.25;5034487;28;20069;-45
2022/06/10 00:37:49;;;;;;;31.52;7.50;;;;;;;13.28;100.00;102014.34;5029627;28;20020;-47
2022/06/10 00:40:22;;;;;;;37.35;8.25;;;;;;;13.31;100.00;102008.69;5027061;28;20443;-43
2022/06/10 00:42:47;;;;;;;32.22;7.40;;;;;;;13.32;100.00;102005.84;5032718;28;20127;-45
2022/06/10 00:45:50;;;;;;;31.02;8.18;;;;;;;13.37;100.00;102011.66;5031751;28;20224;-47
2022/06/10 00:48:26;;;;;;;30.92;7.40;;;;;;;13.38;100.00;102009.78;5027959;28;20032;-46
2022/06/10 00:50:52;;;;;;;35.67;7.53;;;;;;;13.37;100.00;102010.78;5031259;28;20110;-44
2022/06/10 00:53:21;;;;;;;29.77;7.55;;;;;;;13.34;100.00;102003.03;5031791;28;20083;-44
2022/06/10 00:55:51;;;;;;;26.60;7.68;;;;;;;13.28;100.00;102009.81;4998919;28;20018;-45
2022/06/10 00:58:25;;;;;;;34.17;7.80;;;;;;;13.29;100.00;102005.28;5032941;28;20048;-48
2022/06/10 01:00:51;;;;;;;29.52;7.32;;;;;;;13.28;100.00;102001.75;5031298;28;20029;-45
2022/06/10 01:03:17;;;;;;;35.90;7.78;;;;;;;13.30;100.00;102004.31;5026134;28;20024;-45
2022/06/10 01:05:42;;;;;;;36.10;7.82;;;;;;;13.31;100.00;101997.94;5035406;28;20113;-44
2022/06/10 01:08:13;;;;;;;26.88;7.25;;;;;;;13.32;100.00;101996.97;5028262;28;20029;-46
2022/06/10 01:11:06;;;;;;;36.30;7.55;;;;;;;13.35;100.00;102000.19;5026831;28;20040;-45
2022/06/10 01:13:43;;;;;;;36.30;8.00;;;;;;;13.39;100.00;102006.09;5029995;28;20017;-47
2022/06/10 01:16:08;;;;;;;30.88;7.90;;;;;;;13.41;100.00;102004.13;5029780;28;20538;-47
2022/06/10 01:18:43;;;;;;;30.93;7.60;;;;;;;13.45;100.00;102008.19;5026508;28;20029;-46
2022/06/10 01:21:30;;;;;;;33.42;7.97;;;;;;;13.50;100.00;102000.53;5030219;28;20765;-46
2022/06/10 01:24:16;;;;;;;33.20;8.35;;;;;;;13.57;100.00;102012.34;5033416;28;20109;-43
2022/06/10 01:30:31;;;;;;;33.03;8.17;;;;;;;13.62;100.00;102001.97;5029051;28;20481;-44
2022/06/10 01:33:03;;;;;;;37.63;7.60;;;;;;;13.61;100.00;102000.31;5008898;28;20064;-48
2022/06/10 01:35:51;;;;;;;31.90;7.55;;;;;;;13.62;100.00;102009.19;5029368;28;20053;-45
2022/06/10 01:38:37;;;;;;;29.52;7.25;;;;;;;13.62;100.00;102003.84;5027892;28;20032;-46
2022/06/10 01:41:11;;;;;;;32.42;7.43;;;;;;;13.65;100.00;102002.69;5029008;28;20029;-45
2022/06/10 01:43:52;;;;;;;35.03;6.85;;;;;;;13.67;100.00;102006.06;5032949;28;20497;-44
2022/06/10 01:46:25;;;;;;;30.05;7.45;;;;;;;13.67;100.00;102006.06;5035001;28;20078;-45
2022/06/10 01:49:08;;;;;;;32.53;6.57;;;;;;;13.67;100.00;102006.91;5029156;28;20059;-44
2022/06/10 01:51:45;;;;;;;29.13;7.03;;;;;;;13.69;100.00;102012.94;5033367;28;20488;-44
2022/06/10 01:54:58;;;;;;;31.65;6.95;;;;;;;13.71;100.00;102004.75;5034140;28;20044;-47
2022/06/10 01:57:30;;;;;;;29.08;6.65;;;;;;;13.74;100.00;101999.06;5015529;28;20041;-47
2022/06/10 02:00:01;;;;;;;29.15;6.72;;;;;;;13.73;100.00;102000.94;5035181;28;20097;-47
2022/06/10 02:02:33;;;;;;;33.38;7.32;;;;;;;13.74;100.00;102007.13;5032876;28;20055;-46
2022/06/10 02:05:06;;;;;;;30.75;7.00;;;;;;;13.72;100.00;102003.75;5035667;28;20027;-46
2022/06/10 02:07:36;;;;;;;29.85;6.85;;;;;;;13.77;100.00;102012.19;5049431;28;20260;-46
2022/06/10 02:10:09;;;;;;;37.38;6.70;;;;;;;13.74;100.00;102005.28;5026781;28;20025;-45
2022/06/10 02:12:41;;;;;;;31.42;7.65;;;;;;;13.73;100.00;102000.94;5035256;28;20025;-45
2022/06/10 02:15:15;;;;;;;28.70;7.03;;;;;;;13.77;100.00;102017.56;5035782;28;20044;-45
2022/06/10 02:17:49;;;;;;;25.05;6.63;;;;;;;13.81;100.00;102005.50;5034739;28;20028;-47
2022/06/10 02:20:19;;;;;;;29.50;7.18;;;;;;;13.82;100.00;102015.28;5029659;28;20119;-43
2022/06/10 02:22:48;;;;;;;32.80;6.80;;;;;;;13.82;100.00;102014.44;5036164;28;20467;-44
2022/06/10 02:25:27;;;;;;;29.50;6.85;;;;;;;13.79;100.00;102015.56;5036599;28;20025;-44
2022/06/10 02:27:58;;;;;;;23.67;6.88;;;;;;;13.77;100.00;102009.53;5032146;28;20094;-44
2022/06/10 02:30:29;;;;;;;32.38;7.18;;;;;;;13.79;100.00;102007.50;5024868;28;20056;-47
2022/06/10 02:32:57;;;;;;;32.65;7.18;;;;;;;13.80;100.00;102009.22;5017646;28;20344;-46
2022/06/10 02:35:27;;;;;;;34.97;6.35;;;;;;;13.83;100.00;102013.41;5017942;28;20028;-47
2022/06/10 02:38:03;;;;;;;33.92;7.15;;;;;;;13.84;100.00;102024.00;5013188;28;20152;-49
2022/06/10 02:40:36;;;;;;;27.70;7.18;;;;;;;13.83;100.00;102021.47;5010384;28;20615;-45
2022/06/10 02:43:07;;;;;;;26.27;6.50;;;;;;;13.86;100.00;102023.84;5016768;28;20376;-43
2022/06/10 02:45:56;;;;;;;32.53;6.30;;;;;;;13.87;100.00;102010.28;5017287;28;20168;-44
2022/06/10 02:48:37;;;;;;;35.00;6.82;;;;;;;13.92;100.00;102012.50;5016461;28;20033;-44
2022/06/10 02:51:02;;;;;;;35.40;6.50;;;;;;;13.96;100.00;102013.88;5012593;28;20388;-44
2022/06/10 02:53:28;;;;;;;27.90;6.00;;;;;;;13.98;100.00;102019.94;5016737;28;20028;-43
2022/06/10 02:55:54;;;;;;;27.77;6.38;;;;;;;13.98;100.00;102023.47;5016747;28;20079;-45
2022/06/10 03:01:34;;;;;;;36.45;5.95;;;;;;;13.97;100.00;102023.63;5008784;28;20413;-45
2022/06/10 03:04:09;;;;;;;30.63;5.95;;;;;;;13.98;100.00;102017.25;5017268;28;20044;-46
2022/06/10 03:06:37;;;;;;;37.50;6.70;;;;;;;13.98;100.00;102030.69;5017030;28;20445;-46
2022/06/10 03:09:25;;;;;;;28.42;6.07;;;;;;;13.99;100.00;102024.31;5016690;28;20029;-44
2022/06/10 03:11:57;;;;;;;33.03;6.32;;;;;;;13.99;100.00;102025.16;5014979;28;20323;-45
2022/06/10 03:15:03;;;;;;;27.35;6.38;;;;;;;14.01;100.00;102030.38;5022312;28;20028;-45
2022/06/10 03:18:03;;;;;;;30.20;6.15;;;;;;;14.06;100.00;102043.34;5036513;28;20029;-44
2022/06/10 03:20:39;;;;;;;40.53;6.13;;;;;;;14.10;100.00;102036.66;5021637;28;20584;-44
2022/06/10 03:23:14;;;;;;;37.22;6.32;;;;;;;14.15;100.00;102045.97;5013114;28;20099;-45
2022/06/10 03:25:51;;;;;;;37.72;6.15;;;;;;;14.20;100.00;102055.38;5029554;28;20112;-45
2022/06/10 03:28:39;;;;;;;27.33;6.13;;;;;;;14.20;100.00;102040.09;5012035;28;20043;-44
2022/06/10 03:31:22;;;;;;;22.50;5.65;;;;;;;14.20;100.00;102041.94;5035749;28;20029;-45
2022/06/10 03:33:59;;;;;;;30.80;6.13;;;;;;;14.18;100.00;102040.25;5035917;28;20565;-43
2022/06/10 03:36:27;;;;;;;29.30;6.20;;;;;;;14.15;100.00;102040.59;5033665;28;20439;-45
2022/06/10 03:38:53;;;;;;;28.35;5.82;;;;;;;14.14;100.00;102038.06;5036673;28;20029;-47
2022/06/10 03:41:32;;;;;;;26.05;5.95;;;;;;;14.13;100.00;102037.19;5009120;28;20218;-45
2022/06/10 03:44:01;;;;;;;41.10;5.40;;;;;;;14.12;100.00;102037.34;5025558;28;20543;-45
2022/06/10 03:46:32;;;;;;;31.35;5.35;;;;;;;14.10;100.00;102032.16;5030770;28;20026;-46
2022/06/10 03:49:02;;;;;;;30.13;5.50;;;;;;;14.12;100.00;102040.03;5034308;28;20375;-43
2022/06/10 03:51:27;;;;;;;25.30;5.40;;;;;;;14.15;100.00;102037.91;5008507;28;20116;-44
2022/06/10 03:53:53;;;;;;;25.75;5.45;;;;;;;14.17;100.00;102038.56;5023232;28;20261;-44
2022/06/10 03:56:23;;;;;;;31.42;5.32;;;;;;;14.20;100.00;102047.31;5030579;28;20037;-44
2022/06/10 03:58:48;;;;;;;32.45;6.00;;;;;;;14.18;100.00;102042.94;5028493;28;20585;-44
2022/06/10 04:01:13;;;;;;;31.48;5.45;;;;;;;14.20;100.00;102050.00;5007011;28;20029;-47
2022/06/10 04:03:39;;;;;;;29.42;5.20;;;;;;;14.23;100.00;102060.44;4999956;28;20118;-46
2022/06/10 04:06:04;;;;;;;30.80;5.35;;;;;;;14.24;100.00;102054.06;5011843;28;20021;-43
2022/06/10 04:08:30;;;;;;;30.63;5.65;;;;;;;14.22;100.00;102053.38;5013295;28;20025;-46
2022/06/10 04:10:55;;;;;;;41.40;6.55;;;;;;;14.14;100.00;102057.69;5011280;28;20041;-44
2022/06/10 04:13:20;;;;;;;37.15;6.18;;;;;;;14.11;100.00;102067.91;5022241;28;20121;-47
2022/06/10 04:15:47;;;;;;;34.63;6.00;;;;;;;14.08;100.00;102060.16;5015071;28;20107;-47
2022/06/10 04:18:13;;;;;;;37.42;6.22;;;;;;;14.07;100.00;102062.00;5016134;28;20253;-45
2022/06/10 04:20:39;;;;;;;29.77;6.15;;;;;;;14.10;100.00;102066.19;5010392;28;20030;-48
2022/06/10 04:23:06;;;;;;;21.77;5.40;;;;;;;14.12;100.00;102070.44;5014795;28;20263;-44
2022/06/10 04:25:33;;;;;;;27.77;6.05;;;;;;;14.17;100.00;102062.75;5014358;28;20427;-44
2022/06/10 04:27:59;;;;;;;26.88;5.63;;;;;;;14.17;100.00;102072.63;5013961;28;20045;-44
2022/06/10 04:30:32;;;;;;;32.55;5.93;;;;;;;14.18;100.00;102071.66;5014446;28;20180;-44
2022/06/10 04:32:58;;;;;;;34.33;6.10;;;;;;;14.20;100.00;102066.97;5014166;28;20398;-44
2022/06/10 04:35:24;;;;;;;29.33;6.18;;;;;;;14.21;100.00;102068.66;5015768;28;20037;-45
2022/06/10 04:37:53;;;;;;;30.25;6.43;;;;;;;14.24;100.00;102073.72;5013426;28;20029;-44
2022/06/10 04:40:22;;;;;;;34.42;6.25;;;;;;;14.33;100.00;102074.63;5014402;28;20025;-44
2022/06/10 04:42:49;;;;;;;34.03;6.15;;;;;;;14.42;100.00;102068.31;5012826;28;20021;-44
2022/06/10 04:45:17;;;;;;;37.03;6.90;;;;;;;14.47;100.00;102065.16;5015159;28;20036;-44
2022/06/10 04:47:42;;;;;;;28.50;6.07;;;;;;;14.48;100.00;102066.88;5013333;28;20057;-43
2022/06/10 04:50:10;;;;;;;26.25;6.03;;;;;;;14.46;100.00;102064.34;5015100;28;20473;-44
2022/06/10 04:52:37;;;;;;;38.20;6.97;;;;;;;14.45;100.00;102062.63;5026765;28;20033;-45
2022/06/10 04:55:04;;;;;;;40.80;6.38;;;;;;;14.47;100.00;102065.16;5013906;28;20361;-44
2022/06/10 04:57:29;;;;;;;41.80;7.55;;;;;;;14.47;100.00;102060.63;5013917;28;20067;-45
2022/06/10 04:59:55;;;;;;;28.85;6.78;;;;;;;14.53;100.00;102069.94;5012602;28;20061;-47
2022/06/10 05:02:21;;;;;;;36.38;6.28;;;;;;;14.52;100.00;102057.47;5012859;28;20029;-43
2022/06/10 05:04:47;;;;;;;27.15;5.88;;;;;;;14.56;100.00;102064.22;5013594;28;20075;-44
2022/06/10 05:07:12;;;;;;;26.15;6.43;;;;;;;14.61;100.00;102055.72;5015340;28;20025;-48
2022/06/10 05:09:37;;;;;;;29.13;5.72;;;;;;;14.65;100.00;102057.09;5012937;28;20077;-43
2022/06/10 05:12:03;;;;;;;29.73;5.40;;;;;;;14.66;100.00;102059.63;5024202;28;20221;-44
2022/06/10 05:14:28;;;;;;;29.77;5.32;;;;;;;14.71;100.00;102065.38;5025002;28;20033;-45
2022/06/10 05:16:56;;;;;;;30.73;5.43;;;;;;;14.73;100.00;102059.81;5032508;28;20315;-44
2022/06/10 05:19:21;;;;;;;25.05;5.40;;;;;;;14.79;100.00;102061.03;5031159;28;20018;-44
2022/06/10 05:21:46;;;;;;;30.77;5.70;;;;;;;14.83;100.00;102054.34;5029641;28;20204;-44
2022/06/10 05:24:11;;;;;;;28.75;6.00;;;;;;;14.87;100.00;102053.03;5015488;28;20036;-45
2022/06/10 05:26:37;;;;;;;35.55;5.40;;;;;;;14.95;100.00;102058.44;5018112;28;20030;-44
2022/06/10 05:29:02;;;;;;;32.63;6.07;;;;;;;15.01;100.00;102054.28;5017425;28;20045;-44
2022/06/10 05:31:27;;;;;;;30.88;5.85;;;;;;;15.10;100.00;102055.97;5016822;28;20103;-45
2022/06/10 05:36:38;;;;;;;33.47;5.70;;;;;;;15.25;100.00;102056.22;4973262;28;20032;-44
2022/06/10 05:39:06;;;;;;;41.63;6.47;;;;;;;15.30;100.00;102051.19;5018318;28;20398;-47
2022/06/10 05:44:15;;;;;;;31.95;5.32;;;;;;;15.41;100.00;102053.59;5019352;28;20356;-43
2022/06/10 05:46:41;;;;;;;35.67;6.80;;;;;;;15.44;100.00;102055.09;5016549;28;20116;-44
2022/06/10 05:49:08;;;;;;;39.05;7.65;;;;;;;15.45;100.00;102059.50;5019496;28;20033;-43
2022/06/10 05:51:33;;;;;;;34.60;5.68;;;;;;;15.45;100.00;102054.09;5021254;28;20121;-45
2022/06/10 05:53:59;;;;;;;32.88;5.43;;;;;;;15.53;100.00;102055.97;5018783;28;20033;-45
2022/06/10 05:56:24;;;;;;;34.95;5.15;;;;;;;15.61;100.00;102053.28;5029496;28;20738;-44
2022/06/10 05:58:50;;;;;;;32.42;5.88;;;;;;;15.65;100.00;102054.66;5019162;28;20080;-42
2022/06/10 06:01:15;;;;;;;34.72;5.40;;;;;;;15.71;100.00;102054.00;5018458;28;20119;-44
2022/06/10 06:03:41;;;;;;;26.40;5.45;;;;;;;15.85;100.00;102061.47;5018634;28;20187;-44
2022/06/10 06:06:08;;;;;;;35.88;5.93;;;;;;;15.98;100.00;102060.13;5018402;28;20788;-45
2022/06/10 06:08:35;;;;;;;29.73;5.82;;;;;;;16.08;100.00;102063.50;5018503;28;20099;-45
2022/06/10 06:11:01;;;;;;;33.42;5.47;;;;;;;16.11;100.00;102060.47;5022339;28;20025;-47
2022/06/10 06:13:26;;;;;;;35.38;5.80;;;;;;;16.15;100.00;102058.28;5038160;28;20033;-44
2022/06/10 06:15:51;;;;;;;28.73;6.32;;;;;;;16.14;100.00;102067.38;5030466;28;20124;-47
2022/06/10 06:18:17;;;;;;;38.55;6.15;;;;;;;16.13;100.00;102074.63;5014528;28;20025;-45
2022/06/10 06:20:42;;;;;;;30.30;6.05;;;;;;;16.19;100.00;102073.09;5024515;28;20141;-44
2022/06/10 06:23:08;;;;;;;37.67;5.90;;;;;;;16.25;100.00;102074.31;5030993;28;20448;-44
2022/06/10 06:25:34;;;;;;;30.55;5.57;;;;;;;16.26;100.00;102070.56;5029818;28;20037;-45
2022/06/10 06:27:59;;;;;;;28.52;5.75;;;;;;;16.29;100.00;102075.63;5017205;28;20018;-45
2022/06/10 06:30:31;;;;;;;36.38;6.05;;;;;;;16.33;100.00;102075.13;5010205;28;20046;-43
2022/06/10 06:32:58;;;;;;;36.38;6.43;;;;;;;16.36;100.00;102080.19;5028858;28;20030;-45
2022/06/10 06:35:24;;;;;;;28.67;5.57;;;;;;;16.39;100.00;102076.31;5015091;28;20030;-45
2022/06/10 06:37:49;;;;;;;30.45;5.47;;;;;;;16.42;100.00;102084.06;5017094;28;20029;-43
2022/06/10 06:40:15;;;;;;;25.48;4.82;;;;;;;16.43;100.00;102083.06;5016786;28;20274;-47
2022/06/10 06:42:40;;;;;;;26.60;5.22;;;;;;;16.44;100.00;102081.19;5018501;28;20506;-44
2022/06/10 06:45:07;;;;;;;25.45;5.55;;;;;;;16.47;100.00;102091.66;5017145;28;20028;-44
2022/06/10 06:47:32;;;;;;;32.88;5.10;;;;;;;16.51;100.00;102092.97;5017653;28;20041;-44
2022/06/10 06:49:58;;;;;;;31.60;5.70;;;;;;;16.56;100.00;102090.63;5015696;28;20070;-45
2022/06/10 06:52:23;;;;;;;35.03;4.75;;;;;;;16.59;100.00;102090.28;5015254;28;20033;-46
2022/06/10 06:54:49;;;;;;;28.73;4.53;;;;;;;16.60;100.00;102095.50;5016392;28;20018;-45
2022/06/10 06:57:14;;;;;;;38.85;5.43;;;;;;;16.58;100.00;102091.28;5027595;28;20052;-45
2022/06/10 06:59:39;;;;;;;32.15;4.88;;;;;;;16.55;100.00;102102.44;5017594;28;20076;-43
2022/06/10 07:02:05;;;;;;;29.17;5.30;;;;;;;16.55;100.00;102100.56;5015213;28;20055;-46
2022/06/10 07:04:30;;;;;;;23.23;4.70;;;;;;;16.62;100.00;102094.50;5018028;28;20522;-44
2022/06/10 07:06:56;;;;;;;20.98;3.97;;;;;;;16.73;100.00;102104.94;5016785;28;20028;-45
2022/06/10 07:09:21;;;;;;;28.27;4.22;;;;;;;16.80;100.00;102100.53;5016617;28;20025;-44
2022/06/10 07:11:47;;;;;;;24.88;4.72;;;;;;;16.89;100.00;102094.16;5029218;28;20444;-46
2022/06/10 07:14:13;;;;;;;29.60;4.07;;;;;;;16.94;100.00;102088.25;5036057;28;20083;-48
2022/06/10 07:16:38;;;;;;;22.55;4.18;;;;;;;17.01;100.00;102096.50;5036725;28;20097;-49
2022/06/10 07:19:04;;;;;;;37.15;4.60;;;;;;;17.09;100.00;102091.91;5035057;28;20025;-46
2022/06/10 07:21:30;;;;;;;19.50;4.18;;;;;;;17.22;100.00;102091.34;5026930;28;20115;-45
2022/06/10 07:23:55;;;;;;;37.20;4.78;;;;;;;17.36;100.00;102094.31;5026557;28;20155;-44
2022/06/10 07:26:21;;;;;;;23.40;3.70;;;;;;;17.50;100.00;102089.03;5022798;28;20063;-44
2022/06/10 07:28:46;;;;;;;28.23;4.32;;;;;;;17.62;100.00;102094.03;5027279;28;20376;-43
2022/06/10 07:31:12;;;;;;;27.70;3.92;;;;;;;17.66;100.00;102089.97;5030899;28;20036;-44
2022/06/10 07:33:37;;;;;;;16.77;3.80;;;;;;;17.74;100.00;102098.03;5023868;28;20010;-47
2022/06/10 07:36:05;;;;;;;20.85;3.67;;;;;;;17.77;99.79;102100.38;5016179;28;20462;-45
2022/06/10 07:38:30;;;;;;;25.25;5.03;;;;;;;17.81;99.33;102101.69;5030312;28;20010;-43
2022/06/10 07:43:41;;;;;;;19.42;4.28;;;;;;;17.88;99.62;102097.28;5017164;28;20086;-47
2022/06/10 07:46:08;;;;;;;16.42;4.07;;;;;;;17.93;99.25;102101.31;5015775;28;20017;-44
2022/06/10 07:48:34;;;;;;;28.73;4.20;;;;;;;17.99;99.55;102100.56;5028385;28;20030;-46
2022/06/10 07:50:59;;;;;;;19.33;4.22;;;;;;;18.01;98.14;102093.16;5016618;28;20485;-44
2022/06/10 07:53:25;;;;;;;31.80;4.60;;;;;;;18.10;96.99;102100.16;5016157;28;20036;-45
2022/06/10 07:55:51;;;;;;;25.50;3.92;;;;;;;18.22;97.68;102093.31;5009229;28;20057;-45
2022/06/10 07:58:18;;;;;;;27.88;4.00;;;;;;;18.20;94.99;102095.38;5016708;28;20490;-45
2022/06/10 08:00:43;;;;;;;22.35;4.60;;;;;;;18.24;96.55;102093.13;5022003;28;20029;-48
2022/06/10 08:03:09;;;;;;;19.40;4.32;;;;;;;18.26;95.22;102097.34;5010363;28;20076;-46
2022/06/10 08:05:34;;;;;;;22.45;3.72;;;;;;;18.32;95.96;102098.47;5014865;28;20117;-45
2022/06/10 08:08:01;;;;;;;41.88;4.38;;;;;;;18.40;95.81;102094.88;5015944;28;20406;-47
2022/06/10 08:10:36;;;;;;;25.42;4.13;;;;;;;18.39;95.11;102091.31;5014971;28;20044;-44
2022/06/10 08:13:04;;;;;;;26.50;4.30;;;;;;;18.38;95.71;102097.75;5035689;28;20095;-47
2022/06/10 08:15:30;;;;;;;21.52;4.05;;;;;;;18.43;95.61;102098.06;5022079;28;20372;-44
2022/06/10 08:17:58;;;;;;;29.58;4.93;;;;;;;18.53;95.14;102108.59;5015382;28;20021;-44
2022/06/10 08:23:15;;;;;;;20.02;3.70;;;;;;;18.73;92.96;102106.22;5016351;28;20120;-45
2022/06/10 08:25:41;;;;;;;27.02;3.97;;;;;;;18.85;91.78;102112.06;5013583;28;20029;-46
2022/06/10 08:28:07;;;;;;;24.00;4.00;;;;;;;18.94;92.83;102108.25;5014774;28;20031;-45
2022/06/10 08:30:32;;;;;;;29.23;3.83;;;;;;;18.92;91.57;102112.97;5019790;28;20029;-46
2022/06/10 08:32:59;;;;;;;32.05;5.03;;;;;;;18.87;92.69;102110.00;5017298;28;20033;-46
2022/06/10 08:35:24;;;;;;;33.40;4.50;;;;;;;18.91;91.09;102108.63;5013633;28;20033;-46
2022/06/10 08:37:49;;;;;;;24.42;4.82;;;;;;;18.91;90.85;102107.78;5021176;28;20083;-45
2022/06/10 08:40:35;;;;;;;35.10;4.90;;;;;;;18.89;91.28;102105.25;5015012;28;20026;-48
2022/06/10 08:43:24;;;;;;;29.75;4.00;;;;;;;18.99;90.58;102113.94;5019451;28;20025;-44
2022/06/10 08:46:06;;;;;;;30.50;4.47;;;;;;;19.01;90.16;102116.47;5020453;28;20395;-48
2022/06/10 08:48:50;;;;;;;36.13;5.10;;;;;;;19.18;91.36;102109.00;5015648;28;20384;-45
2022/06/10 08:51:41;;;;;;;37.42;5.15;;;;;;;19.38;87.65;102098.41;5011276;28;20117;-44
2022/06/10 08:54:19;;;;;;;26.80;4.97;;;;;;;19.35;86.45;102094.22;5018534;28;20112;-45
2022/06/10 08:56:49;;;;;;;31.35;4.60;;;;;;;19.31;86.66;102101.03;5020170;28;20021;-44
2022/06/10 08:59:27;;;;;;;20.08;4.00;;;;;;;19.39;86.09;102097.38;5015648;28;20483;-47
2022/06/10 09:02:05;;;;;;;31.90;4.10;;;;;;;19.34;85.39;102103.38;5019214;28;20024;-47
2022/06/10 09:04:46;;;;;;;28.33;4.85;;;;;;;19.37;86.93;102096.75;5020319;28;20351;-45
2022/06/10 09:07:23;;;;;;;31.98;4.90;;;;;;;19.45;87.61;102088.50;5016771;28;20087;-47
2022/06/10 09:09:48;;;;;;;28.30;4.72;;;;;;;19.83;87.18;102099.19;5017137;28;20428;-45
2022/06/10 09:12:28;;;;;;;27.70;4.65;;;;;;;20.17;83.98;102096.81;5035325;28;20123;-46
2022/06/10 09:15:02;;;;;;;27.95;4.60;;;;;;;20.54;85.07;102100.28;5037443;28;20028;-44
2022/06/10 09:17:43;;;;;;;42.53;5.03;;;;;;;20.77;82.39;102100.88;5038957;28;20450;-47
2022/06/10 09:20:31;;;;;;;21.95;4.70;;;;;;;20.82;78.85;102105.72;5037477;28;20454;-44
2022/06/10 09:23:08;;;;;;;22.15;4.60;;;;;;;20.85;81.76;102105.31;5018989;28;20029;-44
2022/06/10 09:25:41;;;;;;;27.73;5.53;;;;;;;20.71;80.16;102115.25;5019503;28;20056;-45
2022/06/10 09:28:07;;;;;;;30.13;5.10;;;;;;;20.70;82.21;102101.88;5020485;28;20048;-44
2022/06/10 09:30:59;;;;;;;28.60;4.90;;;;;;;20.89;83.33;102108.47;5015235;28;20025;-44
2022/06/10 09:33:37;;;;;;;32.22;5.88;;;;;;;20.99;82.89;102107.06;5008240;28;20385;-45
2022/06/10 09:36:25;;;;;;;25.23;5.68;;;;;;;20.91;83.25;102106.38;5017483;28;20322;-44
2022/06/10 09:42:25;;;;;;;28.42;5.57;;;;;;;20.99;81.06;102104.34;5001780;28;20569;-48
2022/06/10 09:45:08;;;;;;;27.20;6.22;;;;;;;21.16;80.01;102096.72;5017417;28;20501;-49
2022/06/10 09:48:09;;;;;;;28.08;5.90;;;;;;;21.17;81.49;102095.69;5011626;28;20059;-45
2022/06/10 09:50:57;;;;;;;24.05;5.75;;;;;;;21.03;80.28;102096.66;4964363;28;20050;-45
2022/06/10 09:53:40;;;;;;;35.85;6.45;;;;;;;20.96;82.14;102106.63;5017341;28;20522;-45
2022/06/10 09:56:27;;;;;;;29.27;6.35;;;;;;;21.03;81.53;102100.22;5013069;28;20409;-46
2022/06/10 09:59:02;;;;;;;28.77;6.38;;;;;;;21.19;80.62;102098.19;5017059;28;20014;-46
2022/06/10 10:02:04;;;;;;;31.30;6.43;;;;;;;21.64;80.12;102086.91;5011726;28;20116;-47
2022/06/10 10:04:49;;;;;;;24.30;5.57;;;;;;;22.12;80.08;102105.84;5028703;28;20493;-47
2022/06/10 10:07:33;;;;;;;29.48;5.75;;;;;;;22.46;77.03;102101.31;5033400;28;20190;-48
2022/06/10 10:10:28;;;;;;;30.40;6.90;;;;;;;22.53;75.08;102108.41;5024126;28;20816;-45
2022/06/10 10:13:31;;;;;;;26.88;5.75;;;;;;;22.59;76.60;102101.31;5018502;28;20143;-47
2022/06/10 10:16:44;;;;;;;24.40;5.65;;;;;;;22.42;75.53;102100.88;5018249;28;20083;-47
2022/06/10 10:19:22;;;;;;;31.13;5.35;;;;;;;22.17;77.53;102097.91;4989053;28;20038;-45
2022/06/10 10:22:24;;;;;;;25.45;5.38;;;;;;;22.35;76.63;102109.06;5019980;28;20025;-45
2022/06/10 10:24:50;;;;;;;30.42;5.25;;;;;;;22.27;74.31;102095.63;5011741;28;20028;-44
2022/06/10 10:27:21;;;;;;;26.80;5.20;;;;;;;22.31;77.82;102098.78;5026488;28;20033;-45
2022/06/10 10:29:52;;;;;;;22.33;5.50;;;;;;;22.67;75.19;102098.34;5033664;28;20565;-48
2022/06/10 10:32:22;;;;;;;27.30;6.53;;;;;;;22.43;73.30;102099.81;5035859;28;20051;-45
2022/06/10 10:34:53;;;;;;;29.23;6.05;;;;;;;22.10;75.32;102094.34;5037221;28;20029;-45
2022/06/10 10:37:30;;;;;;;28.55;6.00;;;;;;;21.89;76.40;102096.16;5028648;28;20059;-47
2022/06/10 10:40:04;;;;;;;23.42;5.35;;;;;;;21.80;76.31;102090.09;5026451;28;20023;-45
2022/06/10 10:42:42;;;;;;;26.77;6.30;;;;;;;21.97;78.46;102090.53;5014464;28;20458;-44
2022/06/10 10:45:15;;;;;;;38.22;6.75;;;;;;;22.33;77.54;102096.69;5005215;28;20476;-43
2022/06/10 10:47:48;;;;;;;36.58;7.20;;;;;;;22.59;76.19;102090.41;5030625;28;20029;-47
2022/06/10 10:50:30;;;;;;;32.97;7.38;;;;;;;22.63;75.30;102090.81;5018085;28;20038;-45
2022/06/10 10:52:56;;;;;;;35.30;6.43;;;;;;;22.56;76.48;102093.53;5010525;28;20029;-46
2022/06/10 10:55:28;;;;;;;29.67;6.90;;;;;;;22.45;76.33;102092.28;5017531;28;20025;-45
2022/06/10 10:58:04;;;;;;;29.85;6.50;;;;;;;22.46;77.76;102099.41;5027725;28;20600;-45
2022/06/10 11:00:38;;;;;;;29.15;7.25;;;;;;;22.20;76.88;102091.19;5024609;28;20483;-45
2022/06/10 11:03:03;;;;;;;33.92;7.03;;;;;;;21.96;77.93;102090.75;5014924;28;20026;-47
2022/06/10 11:05:32;;;;;;;28.80;6.70;;;;;;;21.92;79.18;102093.03;5019522;28;20029;-49
2022/06/10 11:08:19;;;;;;;25.08;6.38;;;;;;;22.10;79.34;102097.06;5030853;28;20040;-45
2022/06/10 11:11:02;;;;;;;22.48;6.38;;;;;;;22.13;79.79;102091.19;5021848;28;20029;-46
2022/06/10 11:13:52;;;;;;;26.83;6.85;;;;;;;22.31;78.95;102088.72;5038705;28;20052;-49
2022/06/10 11:16:40;;;;;;;30.70;6.68;;;;;;;22.30;80.27;102089.78;5039018;28;20087;-48
2022/06/10 11:19:08;;;;;;;32.03;6.05;;;;;;;22.46;78.31;102079.53;5038289;28;20044;-46
2022/06/10 11:22:09;;;;;;;27.95;6.32;;;;;;;22.78;78.83;102088.69;5038481;28;20028;-49
2022/06/10 11:24:44;;;;;;;27.45;5.15;;;;;;;23.07;74.82;102092.84;5031755;28;20064;-45
2022/06/10 11:27:31;;;;;;;23.35;4.30;;;;;;;23.32;75.50;102085.84;5039280;28;20102;-46
2022/06/10 11:30:24;;;;;;;30.77;6.03;;;;;;;23.55;71.06;102094.31;5011769;28;20037;-45
2022/06/10 11:32:49;;;;;;;25.80;6.05;;;;;;;23.27;72.25;102089.22;5036891;28;20136;-45
2022/06/10 11:35:21;;;;;;;28.85;6.03;;;;;;;23.12;73.81;102089.47;5031384;28;20227;-47
2022/06/10 11:37:51;;;;;;;21.70;5.05;;;;;;;23.05;71.83;102078.56;5038654;28;20106;-48
2022/06/10 11:40:21;;;;;;;22.17;4.82;;;;;;;23.29;71.58;102089.84;5037351;28;20659;-46
2022/06/10 11:42:53;;;;;;;30.73;5.00;;;;;;;23.34;69.71;102078.31;5038444;28;20134;-46
2022/06/10 11:45:24;;;;;;;24.55;4.85;;;;;;;23.56;72.43;102076.94;5038560;28;20719;-46
2022/06/10 11:47:49;;;;;;;21.35;4.30;;;;;;;23.37;70.00;102080.56;5037916;28;20102;-48
2022/06/10 11:50:34;;;;;;;21.75;5.05;;;;;;;23.32;72.63;102072.19;5038929;28;20480;-46
2022/06/10 11:53:07;;;;;;;23.48;4.57;;;;;;;23.45;69.48;102067.53;5034143;28;20033;-49
2022/06/10 11:55:37;;;;;;;15.20;4.15;;;;;;;23.81;68.97;102074.28;5037567;28;20028;-44